Etusivu
METAR-TAF:

METAR-TAF

Lentoasemat :

Winnemucca Municipal Airport

Winnemucca, Nevada, Yhdysvallat

Leveyspiiri: 40-54-07N, Pituuspiiri: 117-48-26W, korkeus merenpinnasta: 1311 m

Tämänhetkinen sää

Tämä raportti tehtiin 13 minuuttia sitten, kello 10.56 UTC
Tuuli 8 kn koillisesta
Lämpötila -4°C
Kosteus 54%
Ilmanpaine 1023 hPa
Näkyvyys: 16.1 km
selkeää

METAR: KWMC 191056Z AUTO 05008KT 10SM CLR M04/M12 A3020 RMK AO2 SLP240 T10441117

Aika: 03:09 (11:09 UTC)

Sääennuste

Tämä raportti tehtiin 5 tuntia ja 49 minuuttia sitten, kello 05.20 UTC
Ennuste voimassa 19. päivästä klo 06 UTC - 20. päivään klo 06 UTC
Tuuli 8 kn pohjoisesta/koillisesta
Näkyvyys: 10 km
selkeää

TAF: KWMC 190520Z 1906/2006 03008KT P6SM SKC

Säähavainnot ja -ennusteet yli 4000 lentoasemalta (METAR- ja TAF-raportit).

Käytössä olevat sääasemat on merkitty karttaan keltaisilla ja punaisilla pisteillä.

Aseta hiiri pisteen päälle nähdäksesi sääaseman nimen.

Klikkaa sitten nähdäksesi säähavainnot ja -ennusteet.

Kartan vaihtaminen: klikkaa mustalla rastilla varustettuja vihreitä pisteitä, niin voit zoomata sisään; viivalla varustettua vihreää pistettä, niin voit zoomata ulos tai vihreitä nuolia, niin pääset viereisille kartoille.


METAR-TAF: